Time;durP1;ratioP1;P1;durP2;ratioP2;P2;SDS_P1;SDS_P2;PMS_P1;PMS_P2;Temp;Humidity;BMP_temperature;BMP_pressure;BME280_temperature;BME280_humidity;BME280_pressure;Samples;Min_cycle;Max_cycle;Signal;HPM_P1;HPM_P2
2023/01/23 00:01:44;;;;;;;19.13;9.55;;;2.40;99.90;;;;;;4956960;29;20043;-85
2023/01/23 00:04:19;;;;;;;19.55;9.55;;;1.90;99.90;;;;;;4956908;29;20074;-86
2023/01/23 00:06:53;;;;;;;17.45;9.07;;;2.10;99.90;;;;;;4940733;29;20031;-86
2023/01/23 00:09:27;;;;;;;15.75;8.20;;;2.10;99.90;;;;;;4941092;29;20102;-85
2023/01/23 00:12:02;;;;;;;15.15;8.70;;;2.10;99.90;;;;;;4956769;29;20046;-86
2023/01/23 00:14:37;;;;;;;21.23;8.60;;;2.00;99.90;;;;;;4956687;29;20087;-86
2023/01/23 00:17:13;;;;;;;12.98;8.50;;;2.10;99.90;;;;;;4956959;29;20039;-86
2023/01/23 00:19:48;;;;;;;17.23;9.13;;;2.10;99.90;;;;;;4940601;29;20411;-86
2023/01/23 00:22:25;;;;;;;14.05;8.27;;;2.10;99.90;;;;;;4956594;29;20039;-85
2023/01/23 00:25:00;;;;;;;18.35;8.65;;;2.00;99.90;;;;;;4940632;29;20050;-86
2023/01/23 00:27:35;;;;;;;16.50;8.48;;;2.00;99.90;;;;;;4956825;29;20050;-86
2023/01/23 00:30:12;;;;;;;17.60;8.45;;;2.00;99.90;;;;;;4940614;29;20039;-86
2023/01/23 00:32:46;;;;;;;15.85;8.32;;;2.00;99.90;;;;;;4940223;29;20522;-86
2023/01/23 00:35:21;;;;;;;19.48;9.38;;;2.00;99.90;;;;;;4956372;29;20499;-86
2023/01/23 00:37:57;;;;;;;12.65;8.73;;;1.90;99.90;;;;;;4940113;29;20061;-85
2023/01/23 00:40:32;;;;;;;17.23;8.95;;;2.00;99.90;;;;;;4956311;29;20035;-85
2023/01/23 00:43:08;;;;;;;21.73;8.30;;;2.00;99.90;;;;;;4940224;28;20387;-86
2023/01/23 00:45:44;;;;;;;16.38;8.75;;;2.00;99.90;;;;;;4956288;29;20035;-86
2023/01/23 00:48:20;;;;;;;16.65;8.52;;;2.00;99.90;;;;;;4956292;29;20070;-86
2023/01/23 00:50:55;;;;;;;18.05;8.18;;;2.40;99.90;;;;;;4956176;29;20125;-85
2023/01/23 00:53:30;;;;;;;17.55;8.82;;;2.00;99.90;;;;;;4940208;29;20452;-86
2023/01/23 00:56:04;;;;;;;18.45;8.50;;;2.00;99.90;;;;;;4940144;29;20047;-85
2023/01/23 00:58:40;;;;;;;17.92;7.63;;;2.00;99.90;;;;;;4956145;29;20039;-85
2023/01/23 01:01:13;;;;;;;15.52;8.80;;;2.10;99.90;;;;;;4939878;29;20035;-86
2023/01/23 01:03:48;;;;;;;17.92;9.00;;;2.00;99.90;;;;;;4939912;29;20039;-86
2023/01/23 01:06:22;;;;;;;16.58;8.50;;;2.10;99.90;;;;;;4939970;29;20077;-86
2023/01/23 01:08:57;;;;;;;23.48;8.95;;;2.10;99.90;;;;;;4939761;29;20387;-86
2023/01/23 01:11:31;;;;;;;15.52;8.35;;;2.00;99.90;;;;;;4939750;29;20039;-85
2023/01/23 01:14:06;;;;;;;18.85;8.45;;;2.10;99.90;;;;;;4939712;29;20047;-85
2023/01/23 01:16:44;;;;;;;16.90;8.55;;;2.10;99.90;;;;;;4955389;29;20047;-86
2023/01/23 01:19:18;;;;;;;15.50;8.35;;;2.00;99.90;;;;;;4955561;29;20435;-86
2023/01/23 01:21:53;;;;;;;13.77;7.60;;;2.10;99.90;;;;;;4939804;29;20036;-86
2023/01/23 01:24:28;;;;;;;19.42;8.40;;;2.00;99.90;;;;;;4955294;29;20380;-86
2023/01/23 01:27:03;;;;;;;15.32;8.60;;;2.10;99.90;;;;;;4939529;29;20031;-85
2023/01/23 01:29:38;;;;;;;16.45;8.88;;;2.10;99.90;;;;;;4939441;29;20073;-86
2023/01/23 01:32:13;;;;;;;17.02;9.00;;;2.10;99.90;;;;;;4955197;29;20417;-85
2023/01/23 01:34:47;;;;;;;18.42;7.88;;;2.10;99.90;;;;;;4939422;29;20047;-85
2023/01/23 01:37:24;;;;;;;18.10;8.40;;;2.10;99.90;;;;;;4939138;29;20055;-85
2023/01/23 01:39:59;;;;;;;14.00;8.13;;;2.10;99.90;;;;;;4938983;29;20050;-85
2023/01/23 01:42:38;;;;;;;16.88;8.77;;;2.10;99.90;;;;;;4939397;29;20404;-85
2023/01/23 01:45:46;;;;;;;16.23;8.63;;;2.10;99.90;;;;;;4939384;29;20043;-86
2023/01/23 01:48:21;;;;;;;13.65;8.02;;;2.10;99.90;;;;;;4939131;29;20086;-86
2023/01/23 01:50:57;;;;;;;15.35;8.48;;;2.10;99.90;;;;;;4939158;29;20039;-85
2023/01/23 01:53:33;;;;;;;13.80;8.25;;;2.10;99.90;;;;;;4939180;29;20082;-86
2023/01/23 01:56:10;;;;;;;17.15;7.90;;;2.20;99.90;;;;;;4954290;28;20039;-85
2023/01/23 01:58:46;;;;;;;14.50;8.15;;;2.20;99.90;;;;;;4938981;29;20043;-86
2023/01/23 02:01:22;;;;;;;13.57;8.48;;;2.20;99.90;;;;;;4938893;29;20044;-87
2023/01/23 02:03:57;;;;;;;17.40;8.52;;;2.20;99.90;;;;;;4938891;29;20437;-86
2023/01/23 02:06:32;;;;;;;19.60;8.82;;;2.20;99.90;;;;;;4954810;29;20484;-86
2023/01/23 02:09:27;;;;;;;16.17;8.30;;;2.20;99.90;;;;;;4954524;29;20043;-85
2023/01/23 02:12:03;;;;;;;19.98;8.38;;;2.20;99.90;;;;;;4954782;29;20392;-86
2023/01/23 02:14:38;;;;;;;16.58;8.90;;;2.20;99.90;;;;;;4938988;29;20039;-85
2023/01/23 02:17:14;;;;;;;18.60;9.38;;;2.20;99.90;;;;;;4938776;29;20106;-85
2023/01/23 02:19:59;;;;;;;16.55;9.57;;;2.20;99.90;;;;;;4938678;29;20078;-86
2023/01/23 02:22:52;;;;;;;14.65;9.05;;;2.10;99.90;;;;;;4938612;29;20043;-85
2023/01/23 02:25:46;;;;;;;17.05;8.95;;;2.20;99.90;;;;;;4938578;29;20031;-86
2023/01/23 02:28:20;;;;;;;16.25;8.80;;;2.10;99.90;;;;;;4938093;29;20039;-86
2023/01/23 02:30:54;;;;;;;14.52;8.60;;;2.10;99.90;;;;;;4938673;29;20042;-85
2023/01/23 02:33:24;;;;;;;17.20;8.32;;;2.10;99.90;;;;;;4938631;29;20444;-85
2023/01/23 02:36:04;;;;;;;16.55;8.93;;;2.10;99.90;;;;;;4954315;29;20042;-85
2023/01/23 02:38:37;;;;;;;19.63;9.57;;;2.10;99.90;;;;;;4973326;28;20066;-84
2023/01/23 02:41:13;;;;;;;15.95;9.43;;;2.10;99.90;;;;;;4941606;28;20039;-85
2023/01/23 02:43:49;;;;;;;14.65;8.43;;;2.10;99.90;;;;;;4957678;28;20487;-86
2023/01/23 02:46:24;;;;;;;15.75;8.55;;;2.10;99.90;;;;;;4941615;28;20480;-84
2023/01/23 02:48:59;;;;;;;17.65;9.13;;;2.30;99.90;;;;;;4957428;28;20105;-85
2023/01/23 02:51:34;;;;;;;14.77;9.75;;;2.10;99.90;;;;;;4941750;28;20043;-85
2023/01/23 02:54:09;;;;;;;17.17;8.98;;;0.70;99.90;;;;;;4957813;28;20498;-85
2023/01/23 02:56:43;;;;;;;16.00;8.35;;;2.20;99.90;;;;;;4941586;28;20047;-86
2023/01/23 03:02:07;;;;;;;13.88;8.60;;;2.10;99.90;;;;;;4957458;28;20399;-85
2023/01/23 03:04:42;;;;;;;19.85;8.93;;;2.20;99.90;;;;;;4957702;28;20476;-86
2023/01/23 03:07:17;;;;;;;16.70;9.27;;;2.20;99.90;;;;;;4957468;28;20043;-85
2023/01/23 03:09:51;;;;;;;16.13;8.60;;;2.20;99.90;;;;;;4961278;28;20442;-85
2023/01/23 03:12:26;;;;;;;15.00;8.40;;;2.20;99.90;;;;;;4961457;28;20078;-86
2023/01/23 03:15:04;;;;;;;17.98;9.07;;;2.30;99.90;;;;;;4961343;28;20126;-85
2023/01/23 03:17:39;;;;;;;19.48;10.48;;;2.20;99.90;;;;;;4945030;28;20451;-85
2023/01/23 03:20:14;;;;;;;12.98;8.30;;;2.20;99.90;;;;;;4944638;28;20399;-84
2023/01/23 03:22:49;;;;;;;18.83;8.93;;;2.20;99.90;;;;;;4960852;28;20046;-85
2023/01/23 03:25:24;;;;;;;21.17;9.45;;;2.20;99.90;;;;;;4945015;28;20391;-85
2023/01/23 03:27:59;;;;;;;15.57;9.27;;;2.20;99.90;;;;;;4961083;28;20043;-85
2023/01/23 03:30:33;;;;;;;19.52;9.85;;;2.40;99.90;;;;;;4944886;28;20047;-85
2023/01/23 03:33:07;;;;;;;14.52;8.10;;;2.30;99.90;;;;;;4944699;28;20034;-85
2023/01/23 03:35:41;;;;;;;14.40;9.38;;;2.30;99.90;;;;;;4944803;28;20038;-85
2023/01/23 03:38:18;;;;;;;16.60;9.23;;;2.30;99.90;;;;;;4960697;28;20500;-85
2023/01/23 03:43:44;;;;;;;15.48;9.00;;;2.20;99.90;;;;;;4960610;28;20046;-86
2023/01/23 03:46:22;;;;;;;15.48;9.10;;;2.20;99.90;;;;;;4960681;28;20046;-85
2023/01/23 03:48:59;;;;;;;15.38;8.60;;;2.20;99.90;;;;;;4944326;28;20439;-85
2023/01/23 03:51:36;;;;;;;23.27;9.27;;;2.30;99.90;;;;;;4944410;28;20054;-85
2023/01/23 03:54:13;;;;;;;18.70;10.18;;;2.30;99.90;;;;;;4960718;28;20055;-85
2023/01/23 03:56:49;;;;;;;20.00;10.15;;;2.30;99.90;;;;;;4943973;28;20503;-85
2023/01/23 03:59:25;;;;;;;15.07;9.35;;;2.20;99.90;;;;;;4943892;28;20038;-85
2023/01/23 04:02:03;;;;;;;13.27;8.45;;;2.20;99.90;;;;;;4960370;28;20039;-85
2023/01/23 04:04:38;;;;;;;18.13;9.73;;;2.30;99.90;;;;;;4944064;28;20419;-86
2023/01/23 04:07:14;;;;;;;16.33;10.35;;;2.30;99.90;;;;;;4944161;28;20031;-85
2023/01/23 04:09:51;;;;;;;17.03;9.20;;;2.30;99.90;;;;;;4960046;28;20431;-85
2023/01/23 04:12:28;;;;;;;19.70;9.47;;;3.30;99.90;;;;;;4960304;28;20369;-85
2023/01/23 04:15:04;;;;;;;21.92;9.48;;;2.30;99.90;;;;;;4944060;28;20035;-85
2023/01/23 04:17:42;;;;;;;21.27;9.68;;;2.20;99.90;;;;;;4960393;28;20039;-85
2023/01/23 04:20:16;;;;;;;25.20;9.47;;;2.20;99.90;;;;;;4943461;28;20039;-85
2023/01/23 04:22:51;;;;;;;15.40;9.35;;;2.20;99.90;;;;;;4943774;28;20384;-85
2023/01/23 04:25:28;;;;;;;18.33;9.57;;;-0.30;99.90;;;;;;4959916;28;20126;-85
2023/01/23 04:28:00;;;;;;;20.60;9.80;;;2.20;99.90;;;;;;4943690;28;20039;-85
2023/01/23 04:30:35;;;;;;;15.38;9.60;;;2.20;99.90;;;;;;4943815;28;20038;-84
2023/01/23 04:33:10;;;;;;;17.40;10.05;;;2.30;99.90;;;;;;4959947;28;20042;-85
2023/01/23 04:36:02;;;;;;;18.50;9.77;;;2.20;99.90;;;;;;4943689;28;20089;-85
2023/01/23 04:38:40;;;;;;;16.45;9.75;;;2.20;99.90;;;;;;4944087;28;20049;-85
2023/01/23 04:41:23;;;;;;;15.85;9.80;;;2.20;99.90;;;;;;4959577;28;20388;-85
2023/01/23 04:44:18;;;;;;;18.95;9.82;;;2.20;99.90;;;;;;4943267;28;20377;-86
2023/01/23 04:46:52;;;;;;;19.15;9.93;;;2.30;99.90;;;;;;4942914;28;20043;-85
2023/01/23 04:49:26;;;;;;;17.15;9.43;;;2.20;99.90;;;;;;4959349;28;20038;-85
2023/01/23 04:52:02;;;;;;;17.60;9.63;;;2.20;99.90;;;;;;4959219;28;20042;-86
2023/01/23 04:54:36;;;;;;;21.15;10.20;;;2.20;99.90;;;;;;4943013;28;20042;-85
2023/01/23 04:57:12;;;;;;;16.92;9.82;;;2.20;99.90;;;;;;4959488;28;20046;-84
2023/01/23 04:59:57;;;;;;;16.90;9.88;;;2.20;99.90;;;;;;4943325;28;20069;-86
2023/01/23 05:02:33;;;;;;;20.52;10.68;;;2.10;99.90;;;;;;4943146;28;20038;-85
2023/01/23 05:05:09;;;;;;;17.40;9.82;;;2.20;99.90;;;;;;4943077;28;20074;-86
2023/01/23 05:07:46;;;;;;;15.30;9.40;;;2.30;99.90;;;;;;4943365;28;20045;-86
2023/01/23 05:10:22;;;;;;;16.23;9.90;;;2.20;99.90;;;;;;4943300;28;20447;-86
2023/01/23 05:12:58;;;;;;;18.98;10.45;;;2.20;99.90;;;;;;4942961;28;20046;-86
2023/01/23 05:15:33;;;;;;;17.63;10.30;;;2.20;99.90;;;;;;4942806;28;20487;-84
2023/01/23 05:18:09;;;;;;;16.73;10.13;;;2.20;99.90;;;;;;4942684;28;20044;-85
2023/01/23 05:20:44;;;;;;;15.70;9.68;;;2.20;99.90;;;;;;4942931;28;20046;-86
2023/01/23 05:23:19;;;;;;;16.45;8.88;;;2.30;99.90;;;;;;4942897;28;20034;-86
2023/01/23 05:25:55;;;;;;;16.80;9.48;;;2.20;99.90;;;;;;4958832;28;20038;-86
2023/01/23 05:28:31;;;;;;;17.52;9.75;;;0.60;99.90;;;;;;4942771;28;20408;-86
2023/01/23 05:31:07;;;;;;;18.92;9.60;;;2.10;99.90;;;;;;4958076;28;20046;-85
2023/01/23 05:33:42;;;;;;;18.30;10.05;;;2.20;99.90;;;;;;4942352;28;20053;-85
2023/01/23 05:36:17;;;;;;;19.40;9.40;;;2.20;99.90;;;;;;4942318;28;20089;-85
2023/01/23 05:38:53;;;;;;;15.63;9.02;;;2.20;99.90;;;;;;4942486;28;20396;-85
2023/01/23 05:41:22;;;;;;;20.30;10.23;;;2.20;99.90;;;;;;4961365;28;20036;-84
2023/01/23 05:43:49;;;;;;;16.65;9.55;;;2.20;99.90;;;;;;4987608;28;20031;-85
2023/01/23 05:46:15;;;;;;;16.60;9.30;;;2.20;99.90;;;;;;4971619;28;20369;-85
2023/01/23 05:48:42;;;;;;;17.67;9.30;;;2.10;99.90;;;;;;4971143;28;20086;-86
2023/01/23 05:51:14;;;;;;;19.42;9.73;;;3.10;99.90;;;;;;4971186;28;20047;-86
2023/01/23 05:53:48;;;;;;;21.58;9.65;;;2.20;99.90;;;;;;4939038;29;20039;-85
2023/01/23 05:56:23;;;;;;;15.77;10.10;;;2.10;99.90;;;;;;4938677;29;20395;-85
2023/01/23 05:59:05;;;;;;;18.25;9.45;;;1.80;99.90;;;;;;4954547;29;20399;-86
2023/01/23 06:01:40;;;;;;;18.42;9.75;;;1.70;99.90;;;;;;4938497;29;20407;-85
2023/01/23 06:04:15;;;;;;;15.50;9.23;;;2.20;99.90;;;;;;4954842;29;20122;-85
2023/01/23 06:06:49;;;;;;;15.52;9.35;;;2.20;99.90;;;;;;4954566;29;20118;-85
2023/01/23 06:09:24;;;;;;;17.02;9.50;;;2.20;99.90;;;;;;4938749;29;20079;-86
2023/01/23 06:11:59;;;;;;;15.07;9.55;;;2.10;99.90;;;;;;4954500;29;20440;-85
2023/01/23 06:14:35;;;;;;;17.60;9.70;;;2.20;99.90;;;;;;4938472;29;20045;-86
2023/01/23 06:17:12;;;;;;;17.48;8.82;;;2.20;99.90;;;;;;4954167;29;20448;-83
2023/01/23 06:19:48;;;;;;;21.88;9.23;;;2.20;99.90;;;;;;4938705;29;20047;-85
2023/01/23 06:22:18;;;;;;;20.50;9.90;;;2.20;99.90;;;;;;4954562;29;20043;-85
2023/01/23 06:24:52;;;;;;;19.02;9.45;;;1.90;99.90;;;;;;4955708;28;20050;-87
2023/01/23 06:28:04;;;;;;;15.00;9.50;;;2.10;99.90;;;;;;4938361;29;20054;-86
2023/01/23 06:30:46;;;;;;;15.45;9.48;;;2.10;99.90;;;;;;4947503;28;20082;-87
2023/01/23 06:39:17;;;;;;;15.65;9.10;;;2.00;99.90;;;;;;5343938;23;20132;-86
2023/01/23 06:41:57;;;;;;;;;;;2.00;99.90;;;;;;4976867;28;20050;-90
2023/01/23 06:44:28;;;;;;;20.33;9.45;;;2.20;99.90;;;;;;4977973;28;19925;-88
2023/01/23 06:46:54;;;;;;;14.70;8.85;;;2.10;99.90;;;;;;4977666;28;20035;-90
2023/01/23 06:49:20;;;;;;;21.52;9.65;;;2.10;99.90;;;;;;4977623;28;20420;-90
2023/01/23 06:51:48;;;;;;;17.90;10.50;;;;;;;;;;4960956;28;20545;-91
2023/01/23 06:54:13;;;;;;;15.65;9.25;;;2.10;99.90;;;;;;4977228;28;20133;-88
2023/01/23 06:56:39;;;;;;;18.55;9.48;;;2.10;99.90;;;;;;4977106;28;20125;-87
2023/01/23 06:59:06;;;;;;;17.40;10.63;;;2.10;99.90;;;;;;4961278;28;20046;-91
2023/01/23 07:01:39;;;;;;;20.02;10.73;;;2.10;99.90;;;;;;4961202;28;20046;-91
2023/01/23 07:04:12;;;;;;;15.45;9.80;;;2.10;99.90;;;;;;4977203;28;20113;-92
2023/01/23 07:06:38;;;;;;;19.33;9.98;;;0.70;99.90;;;;;;4993559;28;20479;-89
2023/01/23 07:09:07;;;;;;;20.17;10.30;;;2.10;99.90;;;;;;4976922;28;20126;-90
2023/01/23 07:11:36;;;;;;;18.40;10.48;;;2.10;99.90;;;;;;4977571;28;20053;-86
2023/01/23 07:14:01;;;;;;;17.90;9.77;;;2.10;99.90;;;;;;4976690;28;20038;-88
2023/01/23 07:16:27;;;;;;;19.05;10.60;;;2.10;99.90;;;;;;4976592;28;20038;-82
2023/01/23 07:18:53;;;;;;;14.90;9.60;;;2.10;99.90;;;;;;4960564;28;20084;-84
2023/01/23 07:21:19;;;;;;;16.63;9.73;;;2.20;99.90;;;;;;4960305;28;20097;-85
2023/01/23 07:23:44;;;;;;;15.73;9.20;;;2.20;99.90;;;;;;4976650;28;20039;-85
2023/01/23 07:26:11;;;;;;;17.60;9.45;;;2.20;99.90;;;;;;4976606;28;20118;-87
2023/01/23 07:28:37;;;;;;;17.98;10.32;;;2.80;99.90;;;;;;4976631;28;20530;-85
2023/01/23 07:31:04;;;;;;;17.17;9.88;;;3.90;99.90;;;;;;4994496;28;20034;-86
2023/01/23 07:33:30;;;;;;;17.67;9.65;;;2.10;99.90;;;;;;4960238;28;20053;-86
2023/01/23 07:35:56;;;;;;;19.05;9.85;;;2.20;99.90;;;;;;4976653;28;20088;-87
2023/01/23 07:38:22;;;;;;;14.57;8.95;;;3.00;99.90;;;;;;4960277;28;20086;-85
2023/01/23 07:40:51;;;;;;;19.27;10.00;;;2.30;99.90;;;;;;4960111;28;20387;-85
2023/01/23 07:43:17;;;;;;;18.30;9.00;;;2.10;99.90;;;;;;4960397;28;20042;-87
2023/01/23 07:45:43;;;;;;;16.25;8.88;;;2.20;99.90;;;;;;4960265;28;20038;-83
2023/01/23 07:48:09;;;;;;;13.70;8.95;;;2.20;99.90;;;;;;4976279;28;20031;-79
2023/01/23 07:50:36;;;;;;;16.23;9.98;;;2.20;99.90;;;;;;4976286;28;20039;-84
2023/01/23 07:53:03;;;;;;;14.55;9.82;;;2.20;99.90;;;;;;4993920;28;20038;-80
2023/01/23 07:55:29;;;;;;;13.05;9.05;;;2.20;99.90;;;;;;4996844;28;20045;-81
2023/01/23 07:57:55;;;;;;;18.83;9.93;;;2.20;99.90;;;;;;4996965;28;20038;-80
2023/01/23 08:00:21;;;;;;;18.23;9.63;;;2.30;99.90;;;;;;4996894;28;20050;-80
2023/01/23 08:02:47;;;;;;;17.85;9.10;;;2.20;99.90;;;;;;4996405;28;20047;-80
2023/01/23 08:05:12;;;;;;;20.58;9.35;;;2.20;99.90;;;;;;4996831;28;20402;-81
2023/01/23 08:07:38;;;;;;;15.20;9.77;;;2.20;99.90;;;;;;4996976;28;20538;-80
2023/01/23 08:10:04;;;;;;;19.42;9.63;;;2.30;99.90;;;;;;4996874;28;20035;-81
2023/01/23 08:12:30;;;;;;;15.60;9.95;;;2.30;99.90;;;;;;4979510;28;20053;-80
2023/01/23 08:14:55;;;;;;;20.20;10.55;;;2.30;99.90;;;;;;4996699;28;20475;-80
2023/01/23 08:17:21;;;;;;;14.77;9.38;;;2.30;99.90;;;;;;4996706;28;20043;-83
2023/01/23 08:19:47;;;;;;;15.48;9.98;;;2.30;99.90;;;;;;4996924;28;20410;-81
2023/01/23 08:22:13;;;;;;;18.75;9.43;;;2.30;99.90;;;;;;4979205;28;20045;-81
2023/01/23 08:24:38;;;;;;;18.23;10.23;;;2.30;99.90;;;;;;4978936;28;20101;-88
2023/01/23 08:27:04;;;;;;;19.02;9.27;;;2.30;99.90;;;;;;4979332;28;20035;-86
2023/01/23 08:29:30;;;;;;;20.15;10.02;;;2.40;99.90;;;;;;4963043;28;20042;-79
2023/01/23 08:31:56;;;;;;;19.50;10.18;;;2.40;99.90;;;;;;4996176;28;20125;-83
2023/01/23 08:34:22;;;;;;;16.98;9.98;;;2.40;99.90;;;;;;4978982;28;20073;-84
2023/01/23 08:36:49;;;;;;;13.10;8.43;;;2.40;99.90;;;;;;4996352;28;20046;-81
2023/01/23 08:39:16;;;;;;;15.00;8.43;;;2.50;99.90;;;;;;4996017;28;20051;-81
2023/01/23 08:41:41;;;;;;;18.35;9.32;;;2.50;99.90;;;;;;4994982;28;20047;-80
2023/01/23 08:44:07;;;;;;;14.27;8.93;;;2.50;99.90;;;;;;4978582;28;20048;-78
2023/01/23 08:46:33;;;;;;;13.55;8.63;;;2.50;99.90;;;;;;4996079;28;20034;-82
2023/01/23 08:48:58;;;;;;;15.13;9.15;;;2.60;99.90;;;;;;4962486;28;20094;-82
2023/01/23 08:51:26;;;;;;;17.13;8.82;;;2.60;99.90;;;;;;4995958;28;20448;-83
2023/01/23 08:53:52;;;;;;;15.98;8.48;;;2.60;99.90;;;;;;4995909;28;20046;-83
2023/01/23 08:56:19;;;;;;;12.23;8.10;;;2.60;99.90;;;;;;4996123;28;20058;-83
2023/01/23 08:58:45;;;;;;;16.20;8.63;;;2.60;99.90;;;;;;4995928;28;20069;-81
2023/01/23 09:01:19;;;;;;;14.90;8.43;;;2.60;99.90;;;;;;4995692;28;20053;-81
2023/01/23 09:03:45;;;;;;;14.93;7.88;;;2.60;99.90;;;;;;4995859;28;20034;-82
2023/01/23 09:06:12;;;;;;;13.43;8.23;;;2.60;99.90;;;;;;4978175;28;20045;-84
2023/01/23 09:08:37;;;;;;;13.93;9.10;;;2.70;99.90;;;;;;4995690;28;20134;-83
2023/01/23 09:11:05;;;;;;;12.57;7.78;;;2.70;99.90;;;;;;4995678;28;20121;-81
2023/01/23 09:13:31;;;;;;;13.77;8.65;;;2.70;99.90;;;;;;4995609;28;20487;-83
2023/01/23 09:15:57;;;;;;;15.45;8.30;;;2.70;99.90;;;;;;4995358;28;20046;-84
2023/01/23 09:18:24;;;;;;;12.85;8.50;;;2.70;99.90;;;;;;4978341;28;20038;-82
2023/01/23 09:20:50;;;;;;;14.70;8.02;;;2.70;99.90;;;;;;4995271;28;20093;-82
2023/01/23 09:23:17;;;;;;;13.85;8.27;;;2.80;99.90;;;;;;4995451;28;20113;-82
2023/01/23 09:25:42;;;;;;;13.82;7.93;;;2.80;99.90;;;;;;4995562;28;20038;-81
2023/01/23 09:28:08;;;;;;;16.90;8.32;;;2.80;99.90;;;;;;4995347;28;20049;-82
2023/01/23 09:30:34;;;;;;;12.02;8.52;;;2.80;99.90;;;;;;4995244;28;20042;-84
2023/01/23 09:32:59;;;;;;;12.45;7.50;;;2.80;99.90;;;;;;4995299;28;20150;-83
2023/01/23 09:35:25;;;;;;;12.70;7.32;;;2.90;99.90;;;;;;4977774;28;20042;-85
2023/01/23 09:38:00;;;;;;;16.88;8.25;;;2.90;99.90;;;;;;4994832;28;20059;-80
2023/01/23 09:40:29;;;;;;;11.95;7.70;;;2.90;99.90;;;;;;4995035;28;20502;-81
2023/01/23 09:42:58;;;;;;;13.80;7.78;;;2.90;99.90;;;;;;4977643;28;20052;-79
2023/01/23 09:45:25;;;;;;;13.85;9.25;;;2.90;99.90;;;;;;4994963;28;20114;-81
2023/01/23 09:48:09;;;;;;;14.40;8.10;;;3.00;99.90;;;;;;4995052;28;20046;-83
2023/01/23 09:50:51;;;;;;;14.23;7.68;;;3.00;99.90;;;;;;4994909;28;20038;-81
2023/01/23 10:49:05;;;;;;;13.02;8.98;;;3.20;99.90;;;;;;4924442;22;1648440;-81
2023/01/23 10:51:36;;;;;;;18.53;10.07;;;3.20;99.90;;;;;;5093359;28;20062;-83
2023/01/23 10:54:18;;;;;;;10.65;8.18;;;3.20;99.90;;;;;;5093515;28;20101;-82
2023/01/23 10:56:57;;;;;;;14.25;8.85;;;3.30;99.90;;;;;;5110798;28;20047;-84
2023/01/23 10:59:38;;;;;;;16.58;9.65;;;3.30;99.90;;;;;;5093655;28;20044;-81
2023/01/23 11:02:13;;;;;;;17.13;8.77;;;3.30;99.90;;;;;;5116524;28;20036;-84
2023/01/23 11:04:40;;;;;;;13.07;9.27;;;3.30;99.90;;;;;;5111280;28;20044;-80
2023/01/23 11:07:21;;;;;;;12.80;8.57;;;3.30;99.90;;;;;;5111229;28;20048;-81
2023/01/23 11:09:55;;;;;;;16.63;9.15;;;3.40;99.90;;;;;;5111300;28;20441;-81
2023/01/23 11:12:27;;;;;;;14.07;8.68;;;3.40;99.90;;;;;;5111159;28;20123;-81
2023/01/23 11:15:12;;;;;;;15.82;9.02;;;3.50;99.90;;;;;;5111188;28;20076;-82
2023/01/23 11:17:40;;;;;;;12.15;7.85;;;3.50;99.90;;;;;;5110974;28;20440;-81
2023/01/23 11:20:19;;;;;;;14.93;8.70;;;3.60;99.90;;;;;;5111065;28;20490;-81
2023/01/23 11:22:45;;;;;;;15.48;9.00;;;3.60;99.90;;;;;;5111112;28;20048;-84
2023/01/23 11:25:36;;;;;;;13.93;8.13;;;3.60;99.90;;;;;;5111005;28;20479;-85
2023/01/23 11:28:26;;;;;;;13.60;8.48;;;3.70;99.90;;;;;;5101515;28;20047;-83
2023/01/23 11:31:14;;;;;;;14.77;8.70;;;3.70;99.90;;;;;;5072294;28;20062;-82
2023/01/23 11:33:46;;;;;;;14.50;8.05;;;3.70;99.90;;;;;;5089310;28;20127;-82
2023/01/23 11:36:18;;;;;;;11.63;8.13;;;3.70;99.90;;;;;;5090820;28;20063;-82
2023/01/23 11:38:59;;;;;;;13.98;8.40;;;3.70;99.90;;;;;;5089412;28;20040;-82
2023/01/23 11:41:30;;;;;;;14.98;8.55;;;3.90;99.90;;;;;;5090317;28;20080;-82
2023/01/23 11:43:55;;;;;;;13.02;8.30;;;3.60;99.90;;;;;;5088979;28;20052;-82
2023/01/23 11:46:46;;;;;;;14.05;9.15;;;3.60;99.90;;;;;;5089108;28;20043;-82
2023/01/23 11:49:23;;;;;;;12.00;7.78;;;3.70;99.90;;;;;;5071763;28;20063;-82
2023/01/23 11:52:22;;;;;;;15.90;8.23;;;3.70;99.90;;;;;;5089874;28;20494;-83
2023/01/23 11:55:12;;;;;;;12.93;8.70;;;3.70;99.90;;;;;;5090339;28;20052;-82
2023/01/23 11:57:55;;;;;;;14.30;8.50;;;3.70;99.90;;;;;;5088836;28;20549;-82
2023/01/23 12:00:30;;;;;;;14.95;8.70;;;3.70;99.90;;;;;;5058136;28;20044;-82
2023/01/23 12:03:14;;;;;;;12.50;6.78;;;3.80;99.90;;;;;;5074133;28;20289;-83
2023/01/23 12:06:07;;;;;;;14.55;8.10;;;3.70;99.90;;;;;;5058246;28;20101;-80
2023/01/23 12:08:33;;;;;;;14.35;8.23;;;3.70;99.90;;;;;;5075087;28;20482;-84
2023/01/23 12:11:12;;;;;;;15.18;8.43;;;3.90;99.90;;;;;;5075007;28;20041;-85
2023/01/23 12:13:57;;;;;;;14.13;8.55;;;3.80;99.90;;;;;;5076217;28;20083;-84
2023/01/23 12:16:34;;;;;;;14.27;8.32;;;4.40;99.90;;;;;;5076138;28;20084;-83
2023/01/23 12:19:22;;;;;;;10.60;8.18;;;3.90;99.90;;;;;;5075177;28;20033;-84
2023/01/23 12:22:02;;;;;;;12.23;8.10;;;3.90;99.90;;;;;;5076487;28;20056;-82
2023/01/23 12:24:49;;;;;;;11.20;7.60;;;4.00;99.90;;;;;;5075587;28;20098;-84
2023/01/23 12:27:27;;;;;;;15.18;8.52;;;3.80;99.90;;;;;;5076042;28;20041;-85
2023/01/23 12:30:02;;;;;;;;;;;3.90;99.90;;;;;;5075680;28;20088;-83
2023/01/23 12:33:01;;;;;;;12.00;7.60;;;3.90;99.90;;;;;;5075779;28;19920;-83
2023/01/23 12:35:39;;;;;;;12.98;8.23;;;3.90;99.90;;;;;;5074477;28;20040;-90
2023/01/23 12:38:20;;;;;;;;;;;4.00;99.90;;;;;;5075390;28;20387;-84
2023/01/23 12:41:06;;;;;;;13.77;8.23;;;4.00;99.90;;;;;;5075319;28;20375;-87
2023/01/23 12:43:39;;;;;;;12.93;8.15;;;4.00;99.90;;;;;;5058020;28;20052;-88
2023/01/23 12:46:15;;;;;;;14.05;8.15;;;4.00;99.90;;;;;;5074740;28;20041;-83
2023/01/23 12:48:59;;;;;;;17.80;8.57;;;4.00;99.90;;;;;;5073922;28;20068;-82
2023/01/23 12:51:34;;;;;;;15.07;9.57;;;4.00;99.90;;;;;;5074665;28;20059;-82
2023/01/23 12:54:06;;;;;;;12.95;8.38;;;4.00;99.90;;;;;;5075542;28;20060;-81
2023/01/23 12:56:35;;;;;;;15.07;7.88;;;4.00;99.90;;;;;;5075426;28;20510;-81
2023/01/23 12:59:18;;;;;;;14.60;8.88;;;4.10;99.90;;;;;;5075317;28;20131;-81
2023/01/23 13:02:04;;;;;;;12.57;8.43;;;4.10;99.90;;;;;;5057720;28;20087;-82
2023/01/23 13:04:48;;;;;;;13.85;8.85;;;4.10;99.90;;;;;;5074117;28;20044;-81
2023/01/23 13:07:20;;;;;;;14.15;8.98;;;4.10;99.90;;;;;;5074839;28;20041;-81
2023/01/23 13:10:14;;;;;;;19.23;9.10;;;4.20;99.90;;;;;;5075337;28;20052;-81
2023/01/23 13:12:41;;;;;;;16.70;8.60;;;4.10;99.90;;;;;;5074850;28;20399;-82
2023/01/23 13:15:32;;;;;;;13.73;8.25;;;4.10;99.90;;;;;;5075020;28;20051;-85
2023/01/23 13:18:00;;;;;;;17.98;9.10;;;4.10;99.90;;;;;;5065395;28;20106;-83
2023/01/23 13:23:32;;;;;;;10.93;7.82;;;4.10;99.90;;;;;;5074242;28;20094;-86
2023/01/23 13:26:16;;;;;;;15.18;8.25;;;4.10;99.90;;;;;;5074492;28;20101;-82
2023/01/23 13:28:46;;;;;;;15.07;8.32;;;4.10;99.90;;;;;;5073485;28;20044;-80
2023/01/23 13:31:32;;;;;;;12.48;7.75;;;4.10;99.90;;;;;;5074635;28;20056;-81
2023/01/23 13:33:59;;;;;;;13.88;7.90;;;4.20;99.90;;;;;;5073172;28;20051;-79
2023/01/23 13:36:35;;;;;;;14.68;8.60;;;4.10;99.90;;;;;;5074540;28;20044;-80
2023/01/23 13:39:04;;;;;;;15.30;7.50;;;4.10;99.90;;;;;;5074966;28;20053;-80
2023/01/23 13:41:31;;;;;;;13.50;8.25;;;4.10;99.90;;;;;;5073458;28;20044;-82
2023/01/23 13:44:22;;;;;;;16.23;8.65;;;4.10;99.90;;;;;;5073167;28;20044;-80
2023/01/23 13:47:05;;;;;;;16.27;8.63;;;4.10;99.90;;;;;;5074308;28;20044;-86
2023/01/23 13:49:51;;;;;;;13.85;8.75;;;4.10;99.90;;;;;;5056993;28;20096;-86
2023/01/23 13:58:10;;;;;;;17.23;9.20;;;4.10;99.90;;;;;;5073746;28;20060;-85
2023/01/23 14:00:38;;;;;;;15.55;8.55;;;4.20;99.90;;;;;;5056772;28;20055;-86
2023/01/23 14:06:13;;;;;;;14.35;8.63;;;3.40;99.90;;;;;;5073709;28;20499;-86
2023/01/23 14:08:51;;;;;;;13.10;8.38;;;4.10;99.90;;;;;;5056801;28;20083;-85
2023/01/23 14:11:19;;;;;;;14.70;9.25;;;4.10;99.90;;;;;;5073369;28;20157;-85
2023/01/23 14:16:45;;;;;;;15.90;9.63;;;4.10;99.90;;;;;;5073243;28;20131;-86
2023/01/23 14:19:26;;;;;;;15.80;9.15;;;4.10;99.90;;;;;;5054623;28;20048;-86
2023/01/23 14:21:58;;;;;;;20.52;10.52;;;4.10;99.90;;;;;;5052104;28;20051;-86
2023/01/23 14:24:46;;;;;;;16.60;9.98;;;4.10;99.90;;;;;;5036077;28;20037;-86
2023/01/23 14:27:24;;;;;;;13.93;8.73;;;4.10;99.90;;;;;;5059803;28;20395;-86
2023/01/23 14:30:17;;;;;;;12.95;8.98;;;4.10;99.90;;;;;;5065244;28;20561;-86
2023/01/23 14:32:44;;;;;;;13.68;9.50;;;4.10;99.90;;;;;;5072867;28;20097;-86
2023/01/23 14:35:32;;;;;;;17.88;10.45;;;4.10;99.90;;;;;;5057771;28;20057;-86
2023/01/23 14:38:05;;;;;;;19.07;10.37;;;4.00;99.90;;;;;;5052606;28;20344;-86
2023/01/23 14:40:31;;;;;;;15.23;10.10;;;4.00;99.90;;;;;;5052222;28;20051;-85
2023/01/23 14:43:01;;;;;;;15.65;9.80;;;4.00;99.90;;;;;;5052537;28;20135;-85
2023/01/23 14:45:33;;;;;;;17.67;9.95;;;4.00;99.90;;;;;;5052466;28;20044;-82
2023/01/23 14:48:00;;;;;;;17.52;9.82;;;4.00;99.90;;;;;;5035757;28;20139;-85